Time;durP1;ratioP1;P1;durP2;ratioP2;P2;SDS_P1;SDS_P2;PMS_P1;PMS_P2;Temp;Humidity;BMP_temperature;BMP_pressure;BME280_temperature;BME280_humidity;BME280_pressure;Samples;Min_cycle;Max_cycle;Signal;HPM_P1;HPM_P2
2021/01/03 00:03:29;;;;;;;9.27;8.38;;;;;;;3.51;64.67;99727.56;10355844;28;20433;-66
2021/01/03 00:08:30;;;;;;;7.88;7.05;;;;;;;3.52;64.81;99717.88;10355542;28;20054;-67
2021/01/03 00:13:31;;;;;;;9.23;7.38;;;;;;;3.46;63.96;99703.28;10353340;28;20137;-66
2021/01/03 00:18:33;;;;;;;8.32;7.35;;;;;;;3.49;64.00;99718.88;10354714;28;20054;-66
2021/01/03 00:23:34;;;;;;;6.30;5.65;;;;;;;3.47;63.56;99719.94;10352897;28;20100;-66
2021/01/03 00:28:35;;;;;;;6.85;6.05;;;;;;;3.46;64.06;99724.31;10355820;28;20522;-66
2021/01/03 00:33:37;;;;;;;7.50;6.13;;;;;;;3.42;64.22;99717.53;10356603;28;20041;-66
2021/01/03 00:38:38;;;;;;;6.50;5.90;;;;;;;3.30;63.97;99713.00;10357533;28;20073;-66
2021/01/03 00:43:40;;;;;;;6.95;5.72;;;;;;;3.14;64.54;99719.19;10358728;28;20054;-67
2021/01/03 00:48:41;;;;;;;9.43;6.13;;;;;;;3.12;64.86;99718.44;10360689;28;20117;-69
2021/01/03 00:53:42;;;;;;;7.55;6.70;;;;;;;3.16;64.69;99714.66;10359565;28;20112;-67
2021/01/03 00:58:44;;;;;;;6.47;5.82;;;;;;;3.02;64.52;99683.09;10358531;28;20046;-66
2021/01/03 01:03:46;;;;;;;6.55;5.90;;;;;;;3.27;64.24;99711.44;10363460;28;20054;-66
2021/01/03 01:08:47;;;;;;;6.05;5.47;;;;;;;3.36;64.38;99710.03;10363652;28;20072;-65
2021/01/03 01:13:49;;;;;;;7.10;6.35;;;;;;;3.39;64.12;99693.22;10362019;28;20100;-66
2021/01/03 01:18:50;;;;;;;6.82;6.13;;;;;;;3.39;64.06;99696.69;10364457;28;20229;-65
2021/01/03 01:23:52;;;;;;;7.07;5.72;;;;;;;3.31;64.34;99688.41;10356038;28;20104;-65
2021/01/03 01:28:54;;;;;;;6.85;6.15;;;;;;;3.46;63.99;99698.00;10364964;28;20551;-65
2021/01/03 01:33:55;;;;;;;6.25;5.65;;;;;;;3.52;63.85;99692.38;10353875;28;20055;-65
2021/01/03 01:38:56;;;;;;;6.95;6.28;;;;;;;3.54;63.85;99692.28;10359113;28;20050;-65
2021/01/03 01:43:58;;;;;;;6.53;5.93;;;;;;;3.48;64.06;99680.38;10361293;28;20050;-65
2021/01/03 01:49:10;;;;;;;7.25;6.28;;;;;;;3.60;63.77;99701.59;10361685;28;20057;-65
2021/01/03 01:54:24;;;;;;;7.32;6.63;;;;;;;3.69;63.92;99693.16;10359081;28;20235;-64
2021/01/03 01:59:53;;;;;;;8.00;7.10;;;;;;;3.64;63.46;99695.22;10348495;28;20064;-65
2021/01/03 02:05:24;;;;;;;7.22;6.53;;;;;;;3.63;63.55;99704.06;10324496;28;20496;-65
2021/01/03 02:10:34;;;;;;;8.35;7.55;;;;;;;3.67;63.56;99700.31;10356319;28;20506;-65
2021/01/03 02:15:37;;;;;;;7.70;7.00;;;;;;;3.72;63.54;99683.28;10358805;28;20056;-66
2021/01/03 02:20:43;;;;;;;7.88;7.10;;;;;;;3.69;63.73;99666.81;10358853;28;20857;-66
2021/01/03 02:25:45;;;;;;;7.88;7.18;;;;;;;3.77;63.64;99684.78;10363071;28;20570;-67
2021/01/03 02:30:52;;;;;;;8.27;7.53;;;;;;;3.80;63.38;99679.31;10360342;28;20046;-67
2021/01/03 02:36:00;;;;;;;9.25;8.15;;;;;;;3.83;62.98;99680.00;10363572;28;20049;-69
2021/01/03 02:41:02;;;;;;;9.57;8.40;;;;;;;3.82;63.06;99673.03;10358786;28;20921;-66
2021/01/03 02:46:03;;;;;;;9.07;8.18;;;;;;;3.83;63.27;99669.47;10359757;28;20069;-68
2021/01/03 02:51:05;;;;;;;9.20;8.20;;;;;;;3.84;63.13;99665.91;10354755;28;20042;-68
2021/01/03 02:56:07;;;;;;;8.88;8.07;;;;;;;3.88;62.96;99671.81;10358425;28;20084;-66
2021/01/03 03:01:08;;;;;;;9.93;8.95;;;;;;;3.95;62.55;99667.00;10361065;28;20734;-66
2021/01/03 03:06:09;;;;;;;10.05;9.05;;;;;;;3.80;62.72;99648.59;10363807;28;20138;-66
2021/01/03 03:11:11;;;;;;;9.43;8.50;;;;;;;3.96;62.92;99666.06;10364490;28;20065;-66
2021/01/03 03:16:16;;;;;;;10.60;9.60;;;;;;;3.86;63.03;99650.84;10361572;28;20163;-70
2021/01/03 03:21:19;;;;;;;10.48;9.48;;;;;;;3.89;63.15;99658.56;10359916;28;20227;-65
2021/01/03 03:26:20;;;;;;;11.05;9.98;;;;;;;3.89;63.33;99661.19;10357251;28;20191;-64
2021/01/03 03:31:29;;;;;;;11.68;10.48;;;;;;;3.89;63.42;99666.44;10351079;28;20064;-64
2021/01/03 03:36:30;;;;;;;13.13;11.80;;;;;;;3.80;63.78;99638.06;10361726;28;20055;-65
2021/01/03 03:41:31;;;;;;;11.15;10.05;;;;;;;3.91;63.82;99647.09;10363881;28;20060;-66
2021/01/03 03:46:33;;;;;;;11.27;10.27;;;;;;;3.92;63.99;99654.03;10362807;28;20128;-66
2021/01/03 03:51:34;;;;;;;11.70;10.50;;;;;;;3.66;63.79;99609.09;10365806;28;20194;-65
2021/01/03 03:56:35;;;;;;;11.65;10.55;;;;;;;3.81;64.04;99642.38;10363381;28;20701;-65
2021/01/03 04:01:40;;;;;;;12.00;10.80;;;;;;;3.98;63.73;99645.72;10390777;23;20046;-71
2021/01/03 04:06:43;;;;;;;10.75;9.75;;;;;;;3.99;63.93;99648.28;10378937;28;20059;-71
2021/01/03 04:11:47;;;;;;;10.80;9.70;;;;;;;3.87;65.24;99643.78;10362059;28;20133;-71
2021/01/03 04:16:51;;;;;;;11.55;10.43;;;;;;;3.82;65.20;99646.69;10356917;28;20132;-71
2021/01/03 04:21:54;;;;;;;11.48;10.35;;;;;;;3.94;64.65;99639.81;10365435;28;20050;-71
2021/01/03 04:27:01;;;;;;;12.23;11.13;;;;;;;4.04;64.78;99634.84;10365513;28;20046;-71
2021/01/03 04:32:08;;;;;;;11.80;10.52;;;;;;;3.99;64.46;99642.16;10369141;28;20057;-72
2021/01/03 04:37:11;;;;;;;10.52;9.52;;;;;;;4.05;63.98;99629.47;10366992;28;20102;-71
2021/01/03 04:42:16;;;;;;;10.48;9.40;;;;;;;4.06;64.15;99627.69;10360466;28;20111;-71
2021/01/03 04:47:45;;;;;;;11.00;9.90;;;;;;;4.09;63.94;99638.00;10370231;28;20409;-72
2021/01/03 04:53:31;;;;;;;10.88;9.77;;;;;;;4.17;63.75;99641.00;10380896;28;20045;-72
2021/01/03 04:58:57;;;;;;;10.82;9.73;;;;;;;4.14;63.92;99632.44;10393195;28;20061;-72
2021/01/03 05:04:17;;;;;;;10.13;9.23;;;;;;;4.19;63.78;99631.22;10387278;28;20076;-72
2021/01/03 05:09:19;;;;;;;9.85;8.85;;;;;;;4.18;63.52;99631.31;10368143;28;20135;-72
2021/01/03 05:14:43;;;;;;;9.90;8.60;;;;;;;4.19;63.72;99625.13;10367166;28;20069;-71
2021/01/03 05:19:45;;;;;;;9.40;8.38;;;;;;;4.16;64.12;99625.28;10369608;28;20113;-71
2021/01/03 05:24:47;;;;;;;9.73;8.80;;;;;;;4.16;63.70;99622.66;10361338;28;20168;-72
2021/01/03 05:29:48;;;;;;;9.73;8.80;;;;;;;4.18;63.60;99623.41;10360792;28;20127;-71
2021/01/03 05:34:49;;;;;;;8.80;8.00;;;;;;;4.23;64.13;99630.09;10372756;28;20091;-72
2021/01/03 05:39:51;;;;;;;10.57;9.57;;;;;;;4.19;63.79;99620.69;10401810;28;20612;-70
2021/01/03 05:44:57;;;;;;;9.90;8.90;;;;;;;4.13;63.93;99623.72;10371286;28;20076;-71
2021/01/03 05:50:22;;;;;;;9.55;8.55;;;;;;;4.15;64.48;99629.72;10390170;28;20045;-71
2021/01/03 05:55:26;;;;;;;9.55;8.35;;;;;;;4.15;63.97;99621.81;10394466;28;20075;-71
2021/01/03 06:00:27;;;;;;;10.18;9.18;;;;;;;4.10;64.35;99623.91;10384890;28;20099;-69
2021/01/03 06:05:28;;;;;;;10.15;9.10;;;;;;;4.02;64.97;99620.91;10358322;28;20186;-70
2021/01/03 06:10:32;;;;;;;10.52;9.52;;;;;;;4.04;65.38;99624.31;10366224;28;20053;-71
2021/01/03 06:15:40;;;;;;;9.60;8.60;;;;;;;3.99;65.95;99621.09;10381090;28;20040;-71
2021/01/03 06:20:43;;;;;;;9.75;8.75;;;;;;;3.99;66.15;99626.38;10384805;28;20050;-72
2021/01/03 06:25:51;;;;;;;11.07;9.48;;;;;;;3.91;66.33;99631.28;10387881;28;20046;-69
2021/01/03 06:31:04;;;;;;;9.82;8.82;;;;;;;3.91;66.87;99631.28;10361813;28;20061;-71
2021/01/03 06:36:11;;;;;;;9.65;8.75;;;;;;;3.94;67.01;99628.47;10356222;28;20073;-71
2021/01/03 06:41:21;;;;;;;9.13;8.23;;;;;;;4.00;66.89;99635.97;10356365;28;20680;-68
2021/01/03 06:47:00;;;;;;;10.38;9.27;;;;;;;3.91;67.13;99633.91;10361905;28;20142;-68
2021/01/03 06:52:26;;;;;;;10.60;9.43;;;;;;;3.92;67.21;99625.91;10363972;28;20215;-71
2021/01/03 06:57:42;;;;;;;10.60;8.95;;;;;;;3.97;67.65;99629.09;10355650;28;20205;-70
2021/01/03 07:02:47;;;;;;;11.23;10.05;;;;;;;4.07;66.87;99626.75;10359137;28;20113;-69
2021/01/03 07:08:01;;;;;;;11.13;9.50;;;;;;;3.91;67.06;99628.66;10360306;28;20077;-70
2021/01/03 07:13:24;;;;;;;10.48;9.38;;;;;;;3.91;67.39;99623.38;10361669;28;20041;-69
2021/01/03 07:18:26;;;;;;;10.45;9.45;;;;;;;3.93;67.66;99618.84;10356322;28;20058;-71
2021/01/03 07:23:40;;;;;;;11.30;9.13;;;;;;;4.07;67.12;99621.47;10358300;28;20049;-69
2021/01/03 07:28:48;;;;;;;10.55;9.45;;;;;;;4.07;67.27;99613.56;10357987;28;20053;-69
2021/01/03 07:34:04;;;;;;;10.48;9.35;;;;;;;4.11;67.01;99615.03;10358139;28;20057;-71
2021/01/03 07:39:07;;;;;;;11.25;9.98;;;;;;;4.02;67.13;99610.38;10364411;28;20060;-69
2021/01/03 07:44:30;;;;;;;10.60;9.35;;;;;;;4.00;67.05;99617.53;10354383;28;20574;-71
2021/01/03 07:49:44;;;;;;;11.52;9.93;;;;;;;3.95;67.77;99619.59;10358626;28;20306;-71
2021/01/03 07:54:55;;;;;;;12.02;10.13;;;;;;;4.13;67.28;99622.84;10377923;28;20499;-72
2021/01/03 07:59:59;;;;;;;10.45;9.45;;;;;;;3.98;67.79;99622.91;10394594;28;20046;-72
2021/01/03 08:05:02;;;;;;;11.45;10.23;;;;;;;3.94;68.11;99624.03;10393598;28;20050;-72
2021/01/03 08:10:11;;;;;;;10.88;9.77;;;;;;;3.90;68.14;99617.25;10405727;28;20081;-71
2021/01/03 08:15:34;;;;;;;13.23;10.80;;;;;;;3.99;68.61;99623.72;10398682;28;20061;-71
2021/01/03 08:20:36;;;;;;;11.65;10.35;;;;;;;4.08;68.50;99631.03;10373031;28;20041;-71
2021/01/03 08:25:39;;;;;;;11.77;10.07;;;;;;;3.92;68.71;99630.31;10386570;28;20065;-74
2021/01/03 08:30:42;;;;;;;11.63;10.43;;;;;;;3.99;69.12;99629.84;10408076;28;20051;-72
2021/01/03 08:35:44;;;;;;;10.65;9.55;;;;;;;4.00;69.05;99628.06;10408079;28;20046;-70
2021/01/03 08:40:46;;;;;;;12.45;10.75;;;;;;;3.93;69.79;99619.69;10374460;28;20119;-70
2021/01/03 08:45:50;;;;;;;11.20;10.00;;;;;;;4.14;69.30;99632.44;10373805;28;20120;-73
2021/01/03 08:51:12;;;;;;;11.85;10.60;;;;;;;4.27;68.79;99630.72;10374545;28;20046;-74
2021/01/03 08:56:18;;;;;;;12.55;10.98;;;;;;;4.23;69.24;99639.75;10374985;28;20041;-71
2021/01/03 09:01:31;;;;;;;13.20;11.23;;;;;;;4.36;68.58;99624.84;10371981;28;20053;-72
2021/01/03 09:06:35;;;;;;;12.57;10.63;;;;;;;4.35;68.61;99638.13;10366059;28;20071;-71
2021/01/03 09:11:49;;;;;;;95.78;71.53;;;;;;;4.41;68.63;99648.28;10369222;28;20107;-71
2021/01/03 09:17:20;;;;;;;12.35;10.65;;;;;;;4.55;68.79;99650.03;10399597;28;20048;-70
2021/01/03 09:22:36;;;;;;;11.88;10.50;;;;;;;4.43;69.03;99651.69;10361325;28;20057;-71
2021/01/03 09:27:38;;;;;;;11.68;10.30;;;;;;;4.57;68.52;99654.25;10367271;28;20581;-71
2021/01/03 09:32:42;;;;;;;11.55;10.20;;;;;;;4.59;69.11;99662.91;10368926;28;20061;-73
2021/01/03 09:38:01;;;;;;;11.20;9.93;;;;;;;4.51;69.47;99664.34;10369717;28;20199;-71
2021/01/03 09:43:17;;;;;;;11.63;10.43;;;;;;;4.52;69.46;99666.88;10374467;28;20100;-72
2021/01/03 09:48:28;;;;;;;11.57;9.80;;;;;;;4.83;68.78;99669.31;10387639;28;20045;-75
2021/01/03 09:53:32;;;;;;;11.30;10.20;;;;;;;4.65;69.66;99666.09;10363258;28;20660;-74
2021/01/03 09:58:39;;;;;;;10.35;9.32;;;;;;;4.77;69.52;99668.78;10356066;28;20476;-70
2021/01/03 10:03:43;;;;;;;10.93;9.45;;;;;;;4.66;69.91;99673.06;10370872;22;20135;-77
2021/01/03 10:08:45;;;;;;;9.52;8.48;;;;;;;4.67;69.28;99669.47;10350305;28;20203;-73
2021/01/03 10:13:54;;;;;;;9.05;8.15;;;;;;;4.80;69.33;99669.50;10383556;28;20056;-73
2021/01/03 10:18:56;;;;;;;10.00;8.60;;;;;;;4.71;69.54;99660.41;10360799;28;20045;-76
2021/01/03 10:24:03;;;;;;;9.10;7.95;;;;;;;4.87;69.18;99665.53;10361565;28;20069;-78
2021/01/03 10:29:05;;;;;;;10.02;8.38;;;;;;;4.98;68.65;99672.72;10356747;28;20065;-81
2021/01/03 10:34:08;;;;;;;9.13;8.18;;;;;;;4.96;68.20;99665.75;10352004;28;20806;-74
2021/01/03 10:39:11;;;;;;;9.07;8.18;;;;;;;5.07;68.51;99672.09;10354556;28;20046;-78
2021/01/03 10:44:13;;;;;;;8.77;7.88;;;;;;;5.03;68.14;99681.16;10357597;28;20042;-78
2021/01/03 10:49:15;;;;;;;10.93;9.77;;;;;;;4.82;69.07;99671.13;10357031;28;20057;-75
2021/01/03 10:54:19;;;;;;;8.48;7.57;;;;;;;4.89;69.33;99672.38;10359649;28;20109;-76
2021/01/03 10:59:37;;;;;;;10.32;8.93;;;;;;;4.70;70.07;99666.63;10381578;28;20053;-74
2021/01/03 11:04:38;;;;;;;9.93;8.90;;;;;;;4.66;70.12;99662.50;10366955;28;20076;-82
2021/01/03 11:09:39;;;;;;;9.07;7.97;;;;;;;4.58;70.04;99658.59;10391626;28;20034;-82
2021/01/03 11:14:41;;;;;;;10.55;9.10;;;;;;;4.55;70.83;99666.69;10382741;28;20054;-80
2021/01/03 11:19:44;;;;;;;9.30;8.40;;;;;;;4.71;70.88;99661.25;10358399;28;20540;-79
2021/01/03 11:24:45;;;;;;;9.98;8.60;;;;;;;4.82;70.04;99660.56;10365045;28;20155;-76
2021/01/03 11:29:47;;;;;;;9.85;8.73;;;;;;;4.77;70.09;99654.72;10360656;28;20042;-77
2021/01/03 11:34:49;;;;;;;11.77;10.73;;;;;;;4.88;70.29;99652.25;10363230;28;20483;-75
2021/01/03 11:39:50;;;;;;;10.07;9.07;;;;;;;4.87;70.29;99653.19;10365163;28;20775;-75
2021/01/03 11:44:52;;;;;;;9.77;8.77;;;;;;;4.83;70.41;99638.50;10361599;28;20050;-74
2021/01/03 11:49:53;;;;;;;8.70;7.72;;;;;;;4.65;71.54;99655.53;10362116;28;20065;-79
2021/01/03 11:55:04;;;;;;;8.80;7.90;;;;;;;4.65;71.52;99651.09;10356549;28;20073;-76
2021/01/03 12:00:07;;;;;;;9.52;8.63;;;;;;;4.68;71.61;99644.78;10345814;28;20472;-73
2021/01/03 12:05:09;;;;;;;10.45;8.90;;;;;;;4.54;72.38;99653.63;10382484;28;20108;-72
2021/01/03 12:10:12;;;;;;;9.52;8.57;;;;;;;4.45;72.87;99648.94;10357370;28;20076;-73
2021/01/03 12:15:13;;;;;;;9.02;8.13;;;;;;;4.32;73.34;99654.97;10358656;28;20092;-73
2021/01/03 12:20:15;;;;;;;9.05;8.15;;;;;;;4.43;73.20;99663.06;10350830;28;20108;-74
2021/01/03 12:25:18;;;;;;;9.32;8.52;;;;;;;4.46;73.24;99658.53;10350776;28;20451;-75
2021/01/03 12:30:20;;;;;;;10.45;9.15;;;;;;;4.38;73.14;99664.28;10355678;28;20539;-71
2021/01/03 12:35:21;;;;;;;8.95;8.05;;;;;;;4.33;73.09;99661.13;10357450;28;20530;-77
2021/01/03 12:40:22;;;;;;;9.52;8.43;;;;;;;4.48;73.51;99665.38;10360075;28;20155;-73
2021/01/03 12:45:24;;;;;;;10.40;9.27;;;;;;;4.25;74.80;99662.44;10359680;28;20053;-74
2021/01/03 12:50:29;;;;;;;9.90;8.90;;;;;;;4.48;73.87;99662.75;10366233;28;20132;-67
2021/01/03 12:55:36;;;;;;;9.73;8.32;;;;;;;4.39;74.56;99660.72;10331769;28;20046;-71
2021/01/03 13:00:38;;;;;;;9.82;8.25;;;;;;;4.42;74.66;99663.16;10329017;28;20080;-72
2021/01/03 13:05:40;;;;;;;8.80;7.95;;;;;;;4.43;74.22;99656.94;10339702;28;20108;-70
2021/01/03 13:10:41;;;;;;;9.32;8.38;;;;;;;4.47;74.20;99654.94;10339929;28;20054;-71
2021/01/03 13:15:42;;;;;;;8.77;7.72;;;;;;;4.57;74.11;99654.25;10334575;28;20547;-73
2021/01/03 13:20:44;;;;;;;8.57;7.68;;;;;;;4.67;74.39;99665.06;10328191;28;20108;-70
2021/01/03 13:25:45;;;;;;;8.70;7.88;;;;;;;4.69;73.98;99672.84;10324606;28;20060;-72
2021/01/03 13:30:46;;;;;;;8.32;7.30;;;;;;;4.57;73.65;99654.25;10319292;28;20078;-71
2021/01/03 13:35:48;;;;;;;8.02;7.25;;;;;;;4.65;74.11;99668.72;10313265;28;20101;-72
2021/01/03 13:40:50;;;;;;;7.93;7.13;;;;;;;4.52;74.50;99669.53;10317270;28;20318;-72
2021/01/03 13:45:51;;;;;;;7.75;7.03;;;;;;;4.69;74.36;99672.84;10319291;28;20082;-72
2021/01/03 13:50:53;;;;;;;8.02;7.22;;;;;;;4.55;74.56;99666.69;10319178;28;20049;-73
2021/01/03 13:55:54;;;;;;;7.88;7.13;;;;;;;4.58;74.52;99681.47;10334004;28;20050;-73
2021/01/03 14:00:56;;;;;;;8.13;6.85;;;;;;;4.56;74.90;99678.94;10319884;28;20483;-72
2021/01/03 14:05:57;;;;;;;7.82;7.00;;;;;;;4.62;74.68;99687.38;10317709;28;20653;-72
2021/01/03 14:10:59;;;;;;;7.85;7.05;;;;;;;4.55;74.74;99687.78;10323695;28;20054;-78
2021/01/03 14:16:00;;;;;;;8.82;7.32;;;;;;;4.53;74.67;99683.53;10329772;28;20101;-73
2021/01/03 14:21:01;;;;;;;7.68;6.28;;;;;;;4.60;74.98;99690.13;10314576;28;20052;-74
2021/01/03 14:26:02;;;;;;;7.25;6.55;;;;;;;4.41;75.02;99686.03;10334264;28;20061;-81
2021/01/03 14:31:05;;;;;;;6.75;6.15;;;;;;;4.46;74.85;99680.47;10328052;28;20048;-77
2021/01/03 14:36:08;;;;;;;7.78;6.72;;;;;;;4.48;74.71;99697.03;10313504;28;20043;-79
2021/01/03 14:41:10;;;;;;;6.93;6.22;;;;;;;4.43;75.26;99689.41;10314340;28;20108;-73
2021/01/03 14:46:15;;;;;;;6.53;5.78;;;;;;;4.43;75.75;99704.38;10319263;28;20050;-73
2021/01/03 14:51:26;;;;;;;5.90;5.30;;;;;;;4.28;75.95;99705.34;10316767;28;20057;-72
2021/01/03 14:56:54;;;;;;;6.40;5.72;;;;;;;4.42;75.98;99707.97;10313530;28;20054;-73
2021/01/03 15:02:07;;;;;;;6.90;5.75;;;;;;;4.31;75.51;99705.13;10314029;28;20568;-70
2021/01/03 15:07:33;;;;;;;6.50;5.82;;;;;;;4.32;75.34;99697.13;10328959;28;20041;-70
2021/01/03 15:12:35;;;;;;;6.68;5.72;;;;;;;4.33;75.26;99714.66;10313915;28;20579;-73
2021/01/03 15:17:45;;;;;;;6.93;6.32;;;;;;;4.33;75.54;99714.66;10323232;28;20078;-70
2021/01/03 15:22:52;;;;;;;7.57;6.30;;;;;;;4.33;75.30;99713.81;10311586;28;20471;-72
2021/01/03 15:27:54;;;;;;;6.07;5.47;;;;;;;4.33;75.56;99711.19;10310492;28;20057;-74
2021/01/03 15:32:59;;;;;;;6.60;5.55;;;;;;;4.25;75.68;99707.22;10312681;28;20129;-71
2021/01/03 15:38:06;;;;;;;6.05;5.45;;;;;;;4.21;76.01;99705.72;10314187;28;20081;-74
2021/01/03 15:43:28;;;;;;;6.35;5.63;;;;;;;4.30;75.62;99719.28;10314634;28;20295;-73
2021/01/03 15:48:32;;;;;;;6.40;5.35;;;;;;;4.31;75.81;99721.81;10316212;28;20065;-72
2021/01/03 15:53:34;;;;;;;5.65;5.13;;;;;;;4.34;75.70;99721.63;10307320;28;20050;-75
2021/01/03 15:58:36;;;;;;;5.32;4.82;;;;;;;4.27;75.75;99724.75;10314664;28;20073;-74
2021/01/03 16:03:38;;;;;;;6.72;5.07;;;;;;;4.30;75.32;99732.44;10333879;23;20113;-71
2021/01/03 16:08:39;;;;;;;6.97;6.38;;;;;;;4.21;75.88;99732.06;10344198;28;20492;-71
2021/01/03 16:13:41;;;;;;;9.00;6.90;;;;;;;4.13;76.46;99729.09;10320300;28;20041;-72
2021/01/03 16:18:42;;;;;;;8.20;7.47;;;;;;;4.20;76.27;99725.13;10347056;28;20077;-72
2021/01/03 16:23:49;;;;;;;5.15;4.75;;;;;;;4.21;75.85;99728.59;10358480;28;20038;-72
2021/01/03 16:29:02;;;;;;;5.30;4.90;;;;;;;4.18;76.41;99732.25;10325514;28;20077;-71
2021/01/03 16:34:24;;;;;;;3.95;3.65;;;;;;;4.15;76.25;99734.25;10320032;28;20077;-70
2021/01/03 16:39:38;;;;;;;4.50;4.10;;;;;;;4.21;75.89;99732.06;10361067;28;20050;-71
2021/01/03 16:44:58;;;;;;;4.30;3.88;;;;;;;4.12;76.20;99737.91;10367392;28;20459;-72
2021/01/03 16:50:15;;;;;;;4.45;4.05;;;;;;;4.22;77.16;99733.78;10365700;28;20046;-72
2021/01/03 16:55:27;;;;;;;4.93;4.53;;;;;;;4.21;75.46;99737.34;10367246;28;20112;-74
2021/01/03 17:01:00;;;;;;;5.70;5.15;;;;;;;4.18;75.55;99742.81;10390266;28;20085;-74
2021/01/03 17:06:11;;;;;;;5.15;4.65;;;;;;;4.27;76.45;99751.09;10376558;28;20116;-70
2021/01/03 17:11:43;;;;;;;5.32;4.82;;;;;;;4.25;75.62;99748.56;10377524;28;20222;-72
2021/01/03 17:17:02;;;;;;;5.70;5.18;;;;;;;4.21;75.89;99754.94;10337714;28;20081;-72
2021/01/03 17:22:36;;;;;;;5.40;4.90;;;;;;;4.22;75.80;99754.00;10329727;28;20455;-70
2021/01/03 17:28:18;;;;;;;5.22;4.72;;;;;;;4.16;75.81;99754.38;10333684;28;20042;-71
2021/01/03 17:33:45;;;;;;;6.22;5.18;;;;;;;4.17;75.87;99762.19;10352747;28;20759;-71
2021/01/03 17:38:48;;;;;;;6.50;5.65;;;;;;;4.09;76.34;99763.63;10333607;28;20850;-73
2021/01/03 17:44:15;;;;;;;6.22;5.63;;;;;;;4.12;76.06;99760.78;10345186;28;20042;-72
2021/01/03 17:49:25;;;;;;;6.03;5.43;;;;;;;4.11;75.59;99761.72;10336415;28;20634;-73
2021/01/03 17:54:30;;;;;;;5.28;4.88;;;;;;;4.08;75.75;99768.00;10331384;28;20876;-71
2021/01/03 17:59:31;;;;;;;5.03;4.53;;;;;;;4.09;75.69;99759.19;10327114;28;20080;-71
2021/01/03 18:04:33;;;;;;;4.90;4.50;;;;;;;4.06;75.67;99764.63;10323306;28;20062;-74
2021/01/03 18:09:34;;;;;;;5.75;5.25;;;;;;;4.05;75.42;99770.84;10324466;28;20056;-71
2021/01/03 18:14:36;;;;;;;6.47;5.88;;;;;;;4.04;75.73;99780.53;10321147;28;20128;-71
2021/01/03 18:19:40;;;;;;;5.97;5.25;;;;;;;4.01;76.15;99779.88;10319999;28;20169;-71
2021/01/03 18:24:49;;;;;;;;;;;;;;;4.01;76.20;99782.53;10333151;28;20136;-73
2021/01/03 18:29:50;;;;;;;4.80;4.30;;;;;;;4.04;75.95;99784.97;10320880;28;19957;-72
2021/01/03 18:34:52;;;;;;;6.10;5.50;;;;;;;4.04;75.91;99790.25;10325203;28;20073;-73
2021/01/03 18:39:53;;;;;;;4.85;4.45;;;;;;;4.04;76.20;99788.44;10332649;28;20481;-72
2021/01/03 18:44:54;;;;;;;6.53;4.95;;;;;;;4.01;76.10;99785.16;10356900;28;20054;-72
2021/01/03 18:49:56;;;;;;;6.40;5.78;;;;;;;4.03;75.90;99785.91;10343987;28;20072;-73
2021/01/03 18:54:57;;;;;;;5.35;4.85;;;;;;;4.00;75.94;99792.19;10348968;28;20261;-74
2021/01/03 18:59:58;;;;;;;6.38;5.55;;;;;;;4.03;76.09;99797.28;10350123;28;21036;-75
2021/01/03 19:05:00;;;;;;;5.18;4.72;;;;;;;4.00;76.14;99799.25;10347897;28;20054;-72
2021/01/03 19:10:04;;;;;;;6.05;5.18;;;;;;;4.03;76.08;99793.81;10318446;28;20096;-71
2021/01/03 19:15:10;;;;;;;5.33;4.83;;;;;;;3.96;76.31;99805.63;10301370;28;20062;-72
2021/01/03 19:20:12;;;;;;;4.95;4.55;;;;;;;4.01;76.15;99804.44;10312939;28;20054;-73
2021/01/03 19:25:15;;;;;;;6.18;5.57;;;;;;;4.02;75.85;99802.63;10317224;28;20049;-73
2021/01/03 19:30:17;;;;;;;5.22;4.72;;;;;;;4.01;75.69;99803.59;10311587;28;20050;-71
2021/01/03 19:35:18;;;;;;;6.03;5.40;;;;;;;4.02;76.02;99800.00;10313543;28;20058;-73
2021/01/03 19:40:20;;;;;;;5.28;4.88;;;;;;;3.99;76.10;99798.38;10296374;28;20057;-71
2021/01/03 19:45:22;;;;;;;5.53;5.03;;;;;;;3.97;75.79;99799.44;10314886;28;20412;-71
2021/01/03 19:50:23;;;;;;;5.88;5.28;;;;;;;3.97;75.94;99816.06;10326625;28;20570;-71
2021/01/03 19:55:24;;;;;;;5.43;4.78;;;;;;;3.93;76.03;99806.66;10322274;28;20120;-71
2021/01/03 20:00:26;;;;;;;6.00;5.28;;;;;;;3.99;75.70;99805.44;10318051;28;20120;-71
2021/01/03 20:05:27;;;;;;;6.28;5.70;;;;;;;4.02;75.85;99816.66;10319075;28;20054;-74
2021/01/03 20:10:29;;;;;;;4.97;4.47;;;;;;;3.97;75.76;99820.50;10323196;28;20050;-73
2021/01/03 20:15:30;;;;;;;6.10;5.50;;;;;;;3.99;75.50;99827.34;10339685;28;20564;-71
2021/01/03 20:20:36;;;;;;;6.15;5.38;;;;;;;3.93;76.07;99832.16;10337873;28;20050;-72
2021/01/03 20:25:39;;;;;;;5.88;5.38;;;;;;;3.96;75.82;99837.25;10320310;28;20062;-72
2021/01/03 20:30:44;;;;;;;6.22;5.63;;;;;;;3.89;76.09;99836.78;10313076;28;20109;-72
2021/01/03 20:35:45;;;;;;;6.72;6.10;;;;;;;3.98;75.49;99841.50;10310843;28;20136;-71
2021/01/03 20:40:47;;;;;;;7.38;6.68;;;;;;;3.91;75.74;99849.84;10317800;28;20058;-72
2021/01/03 20:45:50;;;;;;;10.65;9.02;;;;;;;3.99;76.02;99852.84;10316227;28;20047;-72
2021/01/03 20:50:52;;;;;;;13.05;10.30;;;;;;;4.00;75.40;99849.28;10311403;28;20050;-71
2021/01/03 20:55:54;;;;;;;8.27;7.47;;;;;;;3.98;75.88;99851.16;10320471;28;20070;-71
2021/01/03 21:00:55;;;;;;;8.00;7.20;;;;;;;4.02;75.60;99852.69;10316152;28;20535;-70
2021/01/03 21:05:57;;;;;;;7.32;6.63;;;;;;;4.03;75.50;99854.38;10326646;28;20062;-72
2021/01/03 21:10:58;;;;;;;6.32;5.80;;;;;;;3.97;75.65;99850.31;10326167;28;20057;-71
2021/01/03 21:15:59;;;;;;;5.70;5.20;;;;;;;3.93;75.44;99847.97;10340436;28;20141;-72
2021/01/03 21:21:01;;;;;;;29.90;19.98;;;;;;;3.99;75.70;99858.97;10351743;28;20061;-71
2021/01/03 21:26:23;;;;;;;7.80;7.00;;;;;;;4.02;75.42;99863.22;10328023;28;20058;-72
2021/01/03 21:31:48;;;;;;;10.80;8.70;;;;;;;4.05;75.02;99866.53;10335789;28;20042;-73
2021/01/03 21:37:03;;;;;;;7.50;6.80;;;;;;;4.01;75.13;99862.38;10350631;28;20046;-75
2021/01/03 21:42:11;;;;;;;6.33;5.83;;;;;;;4.03;75.35;99870.19;10342105;28;20100;-71
2021/01/03 21:47:24;;;;;;;6.80;6.10;;;;;;;4.05;75.35;99870.94;10313140;28;20093;-73
2021/01/03 21:52:55;;;;;;;7.63;6.82;;;;;;;3.98;75.36;99856.41;10312307;28;20077;-71
2021/01/03 21:58:24;;;;;;;6.65;6.05;;;;;;;4.04;75.12;99866.63;10351645;28;20069;-73
2021/01/03 22:03:37;;;;;;;9.13;8.23;;;;;;;4.05;75.29;99869.16;10309622;28;20062;-71
2021/01/03 22:08:54;;;;;;;8.05;7.35;;;;;;;4.02;75.08;99874.63;10309060;28;20038;-71
2021/01/03 22:14:20;;;;;;;9.63;8.63;;;;;;;4.00;74.87;99868.56;10336393;28;20058;-69
2021/01/03 22:19:31;;;;;;;10.30;9.20;;;;;;;4.05;74.90;99879.69;10317541;28;20050;-71
2021/01/03 22:24:55;;;;;;;8.95;8.15;;;;;;;4.04;75.04;99878.00;10312323;28;20054;-72
2021/01/03 22:30:22;;;;;;;12.10;10.52;;;;;;;3.98;75.21;99885.38;10306536;28;20046;-72
2021/01/03 22:35:26;;;;;;;16.70;12.18;;;;;;;4.02;75.11;99879.88;10311562;28;20118;-71
2021/01/03 22:40:46;;;;;;;16.92;13.07;;;;;;;4.02;75.34;99879.00;10312444;28;20046;-72
2021/01/03 22:46:02;;;;;;;19.45;14.57;;;;;;;3.92;75.57;99883.13;10317886;28;20540;-71
2021/01/03 22:51:19;;;;;;;17.40;12.23;;;;;;;3.86;75.77;99879.91;10316068;28;20065;-70
2021/01/03 22:56:52;;;;;;;13.93;10.65;;;;;;;3.94;75.21;99883.91;10324207;28;20401;-70
2021/01/03 23:02:03;;;;;;;13.88;11.07;;;;;;;3.92;75.48;99878.72;10301700;28;20663;-71
2021/01/03 23:07:11;;;;;;;11.05;9.18;;;;;;;3.95;75.31;99873.28;10310804;28;20062;-70
2021/01/03 23:12:41;;;;;;;9.63;8.73;;;;;;;3.93;75.00;99871.66;10316005;28;20050;-71
2021/01/03 23:18:01;;;;;;;9.90;8.23;;;;;;;3.86;75.52;99873.81;10321365;28;20042;-71
2021/01/03 23:23:08;;;;;;;7.53;6.82;;;;;;;3.74;75.80;99864.84;10346789;28;20641;-72
2021/01/03 23:28:14;;;;;;;6.90;6.25;;;;;;;3.82;75.40;99867.03;10329227;28;20101;-73
2021/01/03 23:33:19;;;;;;;7.82;7.13;;;;;;;3.84;75.53;99871.28;10325795;28;20417;-72
2021/01/03 23:38:42;;;;;;;6.53;5.93;;;;;;;3.84;75.06;99859.88;10313434;28;20058;-72
2021/01/03 23:43:51;;;;;;;6.88;6.28;;;;;;;3.84;74.74;99875.69;10324798;28;20054;-71
2021/01/03 23:49:20;;;;;;;7.28;6.57;;;;;;;3.80;75.25;99864.50;10308509;28;20060;-73
2021/01/03 23:54:21;;;;;;;7.60;6.90;;;;;;;3.80;75.29;99866.25;10305104;28;20049;-72
2021/01/03 23:59:50;;;;;;;8.40;7.60;;;;;;;3.79;75.46;99868.06;10322401;28;20385;-74
